sensor_id;sensor_type;location;lat;lon;timestamp;pressure;altitude;pressure_sealevel;temperature;humidity
71903;BME280;59778;50.310;18.780;2022-12-07T00:09:48;98414.06;;;1.11;100.00
71903;BME280;59778;50.310;18.780;2022-12-07T00:25:10;98406.56;;;1.15;100.00
71903;BME280;59778;50.310;18.780;2022-12-07T00:40:31;98401.28;;;1.05;100.00
71903;BME280;59778;50.310;18.780;2022-12-07T00:55:53;98400.03;;;1.36;100.00
71903;BME280;59778;50.310;18.780;2022-12-07T01:11:16;98371.91;;;1.60;100.00
71903;BME280;59778;50.310;18.780;2022-12-07T01:26:38;98359.50;;;1.59;100.00
71903;BME280;59778;50.310;18.780;2022-12-07T01:41:59;98361.44;;;1.94;100.00
71903;BME280;59778;50.310;18.780;2022-12-07T01:57:21;98365.03;;;2.02;100.00
71903;BME280;59778;50.310;18.780;2022-12-07T02:12:44;98353.63;;;1.55;100.00
71903;BME280;59778;50.310;18.780;2022-12-07T02:28:25;98362.69;;;1.72;100.00
71903;BME280;59778;50.310;18.780;2022-12-07T02:44:20;98359.72;;;1.75;100.00
71903;BME280;59778;50.310;18.780;2022-12-07T04:02:13;98331.56;;;1.43;100.00
71903;BME280;59778;50.310;18.780;2022-12-07T04:17:36;98332.66;;;1.51;100.00
71903;BME280;59778;50.310;18.780;2022-12-07T04:32:58;98327.63;;;1.48;100.00
71903;BME280;59778;50.310;18.780;2022-12-07T04:48:19;98328.91;;;1.43;100.00
71903;BME280;59778;50.310;18.780;2022-12-07T05:03:40;98341.22;;;1.27;100.00
71903;BME280;59778;50.310;18.780;2022-12-07T05:19:02;98336.41;;;1.30;100.00
71903;BME280;59778;50.310;18.780;2022-12-07T05:34:24;98337.16;;;1.23;100.00
71903;BME280;59778;50.310;18.780;2022-12-07T05:49:45;98334.09;;;1.18;100.00
71903;BME280;59778;50.310;18.780;2022-12-07T06:05:07;98342.88;;;1.10;100.00
71903;BME280;59778;50.310;18.780;2022-12-07T06:20:28;98356.06;;;1.12;100.00
71903;BME280;59778;50.310;18.780;2022-12-07T06:35:49;98372.53;;;1.17;100.00
71903;BME280;59778;50.310;18.780;2022-12-07T06:51:10;98378.56;;;1.19;100.00
71903;BME280;59778;50.310;18.780;2022-12-07T07:06:32;98374.94;;;1.10;100.00
71903;BME280;59778;50.310;18.780;2022-12-07T07:21:53;98390.25;;;1.18;100.00
71903;BME280;59778;50.310;18.780;2022-12-07T07:37:14;98373.72;;;1.32;100.00
71903;BME280;59778;50.310;18.780;2022-12-07T07:52:36;98373.72;;;1.32;100.00
71903;BME280;59778;50.310;18.780;2022-12-07T08:07:57;98376.22;;;1.70;100.00
71903;BME280;59778;50.310;18.780;2022-12-07T08:23:18;98385.38;;;1.68;100.00
71903;BME280;59778;50.310;18.780;2022-12-07T08:38:41;98409.63;;;1.66;100.00
71903;BME280;59778;50.310;18.780;2022-12-07T08:54:06;98410.66;;;1.83;100.00
71903;BME280;59778;50.310;18.780;2022-12-07T09:09:28;98404.91;;;2.05;100.00
71903;BME280;59778;50.310;18.780;2022-12-07T09:24:49;98381.41;;;2.34;100.00
71903;BME280;59778;50.310;18.780;2022-12-07T09:40:11;98365.75;;;2.40;100.00
71903;BME280;59778;50.310;18.780;2022-12-07T09:55:33;98349.66;;;2.40;100.00
71903;BME280;59778;50.310;18.780;2022-12-07T10:10:57;98323.84;;;2.56;100.00
71903;BME280;59778;50.310;18.780;2022-12-07T10:26:29;98318.94;;;2.77;100.00
71903;BME280;59778;50.310;18.780;2022-12-07T10:41:58;98300.22;;;3.11;100.00
71903;BME280;59778;50.310;18.780;2022-12-07T10:57:36;98296.75;;;3.19;100.00
71903;BME280;59778;50.310;18.780;2022-12-07T11:13:34;98283.91;;;3.05;99.13
71903;BME280;59778;50.310;18.780;2022-12-07T11:45:14;98244.25;;;3.24;96.09
71903;BME280;59778;50.310;18.780;2022-12-07T12:00:37;98246.63;;;4.26;90.06
71903;BME280;59778;50.310;18.780;2022-12-07T12:16:19;98251.50;;;4.22;87.90
71903;BME280;59778;50.310;18.780;2022-12-07T12:32:04;98238.22;;;3.89;88.24
71903;BME280;59778;50.310;18.780;2022-12-07T12:47:42;98221.44;;;3.95;87.15
71903;BME280;59778;50.310;18.780;2022-12-07T13:03:29;98220.09;;;3.74;85.26
71903;BME280;59778;50.310;18.780;2022-12-07T13:18:51;98231.31;;;3.70;85.50
71903;BME280;59778;50.310;18.780;2022-12-07T13:34:35;98232.81;;;3.72;83.95
71903;BME280;59778;50.310;18.780;2022-12-07T13:49:57;98243.72;;;3.55;83.70
71903;BME280;59778;50.310;18.780;2022-12-07T14:05:26;98253.91;;;3.43;84.81
71903;BME280;59778;50.310;18.780;2022-12-07T14:20:50;98279.19;;;3.32;85.16
71903;BME280;59778;50.310;18.780;2022-12-07T14:36:13;98281.31;;;3.21;86.35
71903;BME280;59778;50.310;18.780;2022-12-07T14:51:36;98291.81;;;3.06;83.73
71903;BME280;59778;50.310;18.780;2022-12-07T15:07:01;98298.13;;;2.97;84.03
71903;BME280;59778;50.310;18.780;2022-12-07T15:22:23;98302.13;;;2.93;84.51
71903;BME280;59778;50.310;18.780;2022-12-07T15:37:46;98300.56;;;2.82;84.89
71903;BME280;59778;50.310;18.780;2022-12-07T15:53:08;98313.25;;;2.80;84.51
71903;BME280;59778;50.310;18.780;2022-12-07T16:08:29;98314.63;;;2.59;85.36
71903;BME280;59778;50.310;18.780;2022-12-07T16:23:50;98305.53;;;2.52;85.33
71903;BME280;59778;50.310;18.780;2022-12-07T16:39:12;98309.00;;;2.44;86.42
71903;BME280;59778;50.310;18.780;2022-12-07T16:54:33;98310.78;;;2.35;87.11
71903;BME280;59778;50.310;18.780;2022-12-07T17:09:56;98310.63;;;2.37;88.05
71903;BME280;59778;50.310;18.780;2022-12-07T17:25:17;98318.88;;;2.44;87.30
71903;BME280;59778;50.310;18.780;2022-12-07T17:40:39;98306.94;;;2.38;87.76
71903;BME280;59778;50.310;18.780;2022-12-07T17:56:00;98305.03;;;2.30;87.65
71903;BME280;59778;50.310;18.780;2022-12-07T18:11:23;98309.72;;;2.28;88.32
71903;BME280;59778;50.310;18.780;2022-12-07T18:26:44;98313.16;;;2.21;88.11
71903;BME280;59778;50.310;18.780;2022-12-07T18:42:07;98306.50;;;2.25;88.29
71903;BME280;59778;50.310;18.780;2022-12-07T18:57:31;98308.75;;;2.37;87.99
71903;BME280;59778;50.310;18.780;2022-12-07T19:12:53;98314.16;;;2.20;88.38
71903;BME280;59778;50.310;18.780;2022-12-07T19:28:14;98328.81;;;2.33;88.57
71903;BME280;59778;50.310;18.780;2022-12-07T19:43:37;98330.53;;;2.34;88.45
71903;BME280;59778;50.310;18.780;2022-12-07T19:58:59;98352.47;;;1.85;95.71
71903;BME280;59778;50.310;18.780;2022-12-07T20:14:23;98358.00;;;1.56;99.66
71903;BME280;59778;50.310;18.780;2022-12-07T20:29:45;98356.66;;;1.70;100.00
71903;BME280;59778;50.310;18.780;2022-12-07T20:45:07;98354.53;;;1.73;100.00
71903;BME280;59778;50.310;18.780;2022-12-07T21:00:29;98353.16;;;1.87;100.00
71903;BME280;59778;50.310;18.780;2022-12-07T21:15:50;98344.91;;;2.16;98.25
71903;BME280;59778;50.310;18.780;2022-12-07T21:31:11;98349.88;;;1.93;98.79
71903;BME280;59778;50.310;18.780;2022-12-07T21:46:33;98354.63;;;1.81;99.30
71903;BME280;59778;50.310;18.780;2022-12-07T22:01:54;98362.06;;;1.78;97.13
71903;BME280;59778;50.310;18.780;2022-12-07T22:17:15;98367.44;;;1.78;96.60
71903;BME280;59778;50.310;18.780;2022-12-07T22:32:37;98358.31;;;1.71;95.16
71903;BME280;59778;50.310;18.780;2022-12-07T22:47:58;98364.75;;;1.78;94.94
71903;BME280;59778;50.310;18.780;2022-12-07T23:03:20;98364.06;;;1.76;93.67
71903;BME280;59778;50.310;18.780;2022-12-07T23:18:41;98352.00;;;1.72;93.64
71903;BME280;59778;50.310;18.780;2022-12-07T23:34:03;98351.75;;;1.65;93.53
71903;BME280;59778;50.310;18.780;2022-12-07T23:49:24;98348.31;;;1.73;92.93
